Time;durP1;ratioP1;P1;durP2;ratioP2;P2;SDS_P1;SDS_P2;PMS_P1;PMS_P2;Temp;Humidity;BMP_temperature;BMP_pressure;BME280_temperature;BME280_humidity;BME280_pressure;Samples;Min_cycle;Max_cycle;Signal;HPM_P1;HPM_P2
2022/07/21 00:01:48;;;;;;;6.07;2.17;;;;;;;;;;4913874;29;20024;-68
2022/07/21 00:04:15;;;;;;;5.68;2.20;;;;;;;;;;4913640;29;20122;-68
2022/07/21 00:06:42;;;;;;;9.38;2.17;;;;;;;;;;4912089;29;20477;-68
2022/07/21 00:09:09;;;;;;;14.15;1.95;;;;;;;;;;4913432;29;20032;-68
2022/07/21 00:11:35;;;;;;;13.88;2.67;;;;;;;;;;4913293;29;20023;-68
2022/07/21 00:14:01;;;;;;;4.85;2.15;;;;;;;;;;4912707;29;20533;-67
2022/07/21 00:16:27;;;;;;;8.13;2.25;;;;;;;;;;4912991;29;20103;-67
2022/07/21 00:18:54;;;;;;;6.05;2.20;;;;;;;;;;4913086;29;20040;-67
2022/07/21 00:21:19;;;;;;;11.75;2.25;;;;;;;;;;4913349;29;20021;-68
2022/07/21 00:23:45;;;;;;;5.43;2.30;;;;;;;;;;4914302;29;20044;-69
2022/07/21 00:26:11;;;;;;;7.20;2.28;;;;;;;;;;4909512;29;20466;-68
2022/07/21 00:28:37;;;;;;;10.27;2.30;;;;;;;;;;4913425;29;20057;-67
2022/07/21 00:31:03;;;;;;;6.25;2.10;;;;;;;;;;4912729;29;20063;-67
2022/07/21 00:33:29;;;;;;;7.85;2.42;;;;;;;;;;4913233;29;20058;-67
2022/07/21 00:35:55;;;;;;;10.07;2.50;;;;;;;;;;4912728;29;20071;-67
2022/07/21 00:38:21;;;;;;;6.03;1.77;;;;;;;;;;4913278;29;20047;-67
2022/07/21 00:40:47;;;;;;;5.18;1.88;;;;;;;;;;4912927;29;20036;-67
2022/07/21 00:43:13;;;;;;;4.53;1.63;;;;;;;;;;4913901;29;20462;-67
2022/07/21 00:45:39;;;;;;;3.33;1.90;;;;;;;;;;4899731;29;20032;-67
2022/07/21 00:48:05;;;;;;;5.30;1.80;;;;;;;;;;4917005;29;20160;-68
2022/07/21 00:50:32;;;;;;;7.10;1.60;;;;;;;;;;4916766;29;20024;-67
2022/07/21 00:52:58;;;;;;;4.15;1.83;;;;;;;;;;4917661;29;20036;-67
2022/07/21 00:55:24;;;;;;;6.93;1.92;;;;;;;;;;4915841;29;20055;-68
2022/07/21 00:57:52;;;;;;;7.13;1.90;;;;;;;;;;4917466;29;20119;-68
2022/07/21 01:00:29;;;;;;;3.58;1.80;;;;;;;;;;4914757;29;20037;-69
2022/07/21 01:02:56;;;;;;;6.25;1.80;;;;;;;;;;4916814;29;20040;-68
2022/07/21 01:05:22;;;;;;;11.32;3.05;;;;;;;;;;4916456;29;20107;-68
2022/07/21 01:07:51;;;;;;;7.60;2.28;;;;;;;;;;4917702;29;20379;-69
2022/07/21 01:10:18;;;;;;;8.02;1.70;;;;;;;;;;4916565;29;20530;-69
2022/07/21 01:12:45;;;;;;;4.45;1.50;;;;;;;;;;4912405;29;20524;-68
2022/07/21 01:15:13;;;;;;;2.85;1.48;;;;;;;;;;4916435;29;20044;-67
2022/07/21 01:17:40;;;;;;;5.95;1.63;;;;;;;;;;4915792;29;20040;-70
2022/07/21 01:20:09;;;;;;;4.88;1.92;;;;;;;;;;4916375;29;20039;-68
2022/07/21 01:22:37;;;;;;;7.07;1.80;;;;;;;;;;4915848;29;20865;-69
2022/07/21 01:25:04;;;;;;;13.98;3.78;;;;;;;;;;4917606;29;20395;-68
2022/07/21 01:27:30;;;;;;;10.13;2.08;;;;;;;;;;4918157;29;20692;-67
2022/07/21 01:29:57;;;;;;;6.07;2.08;;;;;;;;;;4918001;29;20056;-69
2022/07/21 01:32:24;;;;;;;5.60;1.98;;;;;;;;;;4901449;29;20043;-69
2022/07/21 01:34:50;;;;;;;7.60;2.15;;;;;;;;;;4918419;29;20036;-69
2022/07/21 01:37:21;;;;;;;7.40;2.20;;;;;;;;;;4918317;29;20036;-68
2022/07/21 01:42:40;;;;;;;4.97;1.98;;;;;;;;;;4911631;29;20103;-68
2022/07/21 01:45:07;;;;;;;4.15;1.90;;;;;;;;;;4915895;29;20063;-69
2022/07/21 01:47:33;;;;;;;3.65;1.70;;;;;;;;;;4915641;29;20028;-69
2022/07/21 01:49:59;;;;;;;8.52;2.25;;;;;;;;;;4916331;29;20035;-69
2022/07/21 01:52:25;;;;;;;4.65;1.67;;;;;;;;;;4915518;29;20483;-69
2022/07/21 01:54:51;;;;;;;5.30;1.80;;;;;;;;;;4915469;29;20435;-70
2022/07/21 01:57:17;;;;;;;3.05;1.60;;;;;;;;;;4915464;29;20044;-69
2022/07/21 01:59:43;;;;;;;5.10;1.58;;;;;;;;;;4916143;29;20115;-69
2022/07/21 02:02:09;;;;;;;5.68;1.80;;;;;;;;;;4915496;29;20044;-68
2022/07/21 02:04:35;;;;;;;5.38;1.90;;;;;;;;;;4916304;29;20047;-68
2022/07/21 02:07:35;;;;;;;4.68;1.67;;;;;;;;;;4914967;29;20471;-69
2022/07/21 02:10:14;;;;;;;10.43;2.15;;;;;;;;;;4915647;29;20040;-69
2022/07/21 02:12:40;;;;;;;7.13;2.10;;;;;;;;;;4914551;29;20071;-69
2022/07/21 02:15:07;;;;;;;12.73;3.42;;;;;;;;;;4915740;29;20043;-69
2022/07/21 02:17:33;;;;;;;12.00;3.40;;;;;;;;;;4915468;29;20042;-70
2022/07/21 02:19:59;;;;;;;17.83;3.70;;;;;;;;;;4915697;29;20044;-69
2022/07/21 02:22:25;;;;;;;16.05;3.45;;;;;;;;;;4914910;29;20044;-69
2022/07/21 02:24:50;;;;;;;13.05;3.63;;;;;;;;;;4915622;29;20553;-69
2022/07/21 02:27:16;;;;;;;11.75;3.17;;;;;;;;;;4915099;29;20051;-69
2022/07/21 02:29:42;;;;;;;9.15;3.03;;;;;;;;;;4914972;29;20034;-68
2022/07/21 02:32:08;;;;;;;13.18;3.83;;;;;;;;;;4915126;29;20493;-69
2022/07/21 02:34:34;;;;;;;12.93;3.28;;;;;;;;;;4915428;29;20458;-68
2022/07/21 02:37:00;;;;;;;7.15;2.78;;;;;;;;;;4912364;29;20052;-69
2022/07/21 02:39:26;;;;;;;7.85;3.08;;;;;;;;;;4914765;29;20439;-70
2022/07/21 02:41:52;;;;;;;14.18;3.13;;;;;;;;;;4915171;29;20047;-70
2022/07/21 02:44:17;;;;;;;11.60;3.38;;;;;;;;;;4914358;29;20115;-69
2022/07/21 02:46:43;;;;;;;6.85;2.88;;;;;;;;;;4915641;29;20562;-69
2022/07/21 02:49:09;;;;;;;10.80;2.80;;;;;;;;;;4914804;29;20119;-68
2022/07/21 02:51:35;;;;;;;8.70;3.00;;;;;;;;;;4914876;29;20177;-69
2022/07/21 02:54:01;;;;;;;11.40;3.03;;;;;;;;;;4915104;29;20488;-69
2022/07/21 02:56:27;;;;;;;8.25;3.28;;;;;;;;;;4914032;29;20387;-68
2022/07/21 02:58:52;;;;;;;9.68;3.20;;;;;;;;;;4914457;29;20036;-69
2022/07/21 03:01:18;;;;;;;11.20;2.92;;;;;;;;;;4924526;29;20044;-68
2022/07/21 03:03:44;;;;;;;7.82;3.05;;;;;;;;;;4916357;29;20035;-70
2022/07/21 03:06:10;;;;;;;7.32;2.33;;;;;;;;;;4933955;29;20038;-70
2022/07/21 03:08:36;;;;;;;11.77;3.13;;;;;;;;;;4933329;29;20036;-69
2022/07/21 03:11:03;;;;;;;9.65;3.08;;;;;;;;;;4933661;29;20058;-69
2022/07/21 03:13:28;;;;;;;10.95;2.78;;;;;;;;;;4933180;29;20063;-69
2022/07/21 03:15:54;;;;;;;9.43;2.58;;;;;;;;;;4933354;29;20075;-70
2022/07/21 03:18:20;;;;;;;16.83;2.72;;;;;;;;;;4933015;29;20063;-69
2022/07/21 03:20:46;;;;;;;9.20;2.28;;;;;;;;;;4933458;29;20063;-68
2022/07/21 03:23:13;;;;;;;7.35;2.85;;;;;;;;;;4932840;29;20131;-69
2022/07/21 03:25:39;;;;;;;7.75;2.95;;;;;;;;;;4933108;29;20059;-68
2022/07/21 03:28:06;;;;;;;10.55;2.78;;;;;;;;;;4936042;29;20039;-68
2022/07/21 03:30:32;;;;;;;6.63;2.10;;;;;;;;;;4933518;29;20094;-71
2022/07/21 03:32:58;;;;;;;8.57;2.35;;;;;;;;;;4932581;29;20677;-69
2022/07/21 03:35:24;;;;;;;7.80;2.30;;;;;;;;;;4933055;29;20043;-69
2022/07/21 03:37:52;;;;;;;4.80;2.15;;;;;;;;;;4933027;29;20114;-70
2022/07/21 03:40:22;;;;;;;7.03;2.55;;;;;;;;;;4932874;29;20035;-69
2022/07/21 03:42:53;;;;;;;6.30;2.30;;;;;;;;;;4932543;29;20494;-69
2022/07/21 03:45:21;;;;;;;6.03;2.30;;;;;;;;;;4933215;29;20123;-68
2022/07/21 03:47:46;;;;;;;6.35;1.85;;;;;;;;;;4932042;29;20019;-69
2022/07/21 03:50:13;;;;;;;5.25;2.10;;;;;;;;;;4933097;29;20036;-69
2022/07/21 03:52:39;;;;;;;6.97;2.22;;;;;;;;;;4932525;29;20023;-69
2022/07/21 03:55:08;;;;;;;4.82;2.10;;;;;;;;;;4932932;29;20031;-69
2022/07/21 03:57:39;;;;;;;4.15;1.88;;;;;;;;;;4931993;29;20062;-69
2022/07/21 04:00:12;;;;;;;5.18;1.95;;;;;;;;;;4930773;29;20383;-69
2022/07/21 04:02:42;;;;;;;5.75;2.03;;;;;;;;;;4931390;29;20127;-69
2022/07/21 04:05:10;;;;;;;4.00;1.92;;;;;;;;;;4931389;29;20040;-69
2022/07/21 04:07:36;;;;;;;7.82;2.53;;;;;;;;;;4931780;29;20541;-69
2022/07/21 04:10:03;;;;;;;6.28;1.80;;;;;;;;;;4932185;29;20027;-69
2022/07/21 04:12:29;;;;;;;6.75;2.13;;;;;;;;;;4932036;29;20035;-69
2022/07/21 04:14:55;;;;;;;7.38;2.25;;;;;;;;;;4932181;29;20028;-69
2022/07/21 04:17:22;;;;;;;4.32;1.70;;;;;;;;;;4913331;29;20542;-70
2022/07/21 04:19:48;;;;;;;5.75;1.75;;;;;;;;;;4931837;29;20032;-74
2022/07/21 04:22:14;;;;;;;11.98;3.75;;;;;;;;;;4931393;29;20031;-69
2022/07/21 04:24:41;;;;;;;20.05;2.70;;;;;;;;;;4931894;29;20498;-70
2022/07/21 04:27:07;;;;;;;11.43;2.63;;;;;;;;;;4931902;29;20044;-69
2022/07/21 04:29:32;;;;;;;12.35;2.88;;;;;;;;;;4931806;29;20028;-71
2022/07/21 04:32:00;;;;;;;16.70;3.20;;;;;;;;;;4932109;29;20102;-70
2022/07/21 04:34:27;;;;;;;20.73;4.10;;;;;;;;;;4931930;29;20442;-69
2022/07/21 04:36:53;;;;;;;18.50;3.17;;;;;;;;;;4931648;29;20067;-69
2022/07/21 04:39:18;;;;;;;13.63;3.08;;;;;;;;;;4931951;29;20059;-71
2022/07/21 04:41:44;;;;;;;20.88;4.20;;;;;;;;;;4931689;29;20032;-69
2022/07/21 04:44:10;;;;;;;14.23;2.70;;;;;;;;;;4931880;29;20024;-70
2022/07/21 04:46:36;;;;;;;8.20;3.13;;;;;;;;;;4931891;29;20036;-69
2022/07/21 04:49:02;;;;;;;16.95;3.35;;;;;;;;;;4931791;29;20066;-69
2022/07/21 04:51:28;;;;;;;5.70;2.30;;;;;;;;;;4923264;29;20412;-70
2022/07/21 04:53:54;;;;;;;2.97;1.88;;;;;;;;;;4931352;29;20111;-68
2022/07/21 04:56:20;;;;;;;9.93;2.58;;;;;;;;;;4931724;29;20048;-68
2022/07/21 04:58:47;;;;;;;10.93;3.38;;;;;;;;;;4932341;29;20471;-66
2022/07/21 05:01:13;;;;;;;9.63;2.30;;;;;;;;;;4931810;29;20123;-69
2022/07/21 05:03:38;;;;;;;8.73;2.70;;;;;;;;;;4931552;29;20119;-68
2022/07/21 05:06:04;;;;;;;5.72;1.92;;;;;;;;;;4926111;29;20047;-69
2022/07/21 05:08:30;;;;;;;12.43;2.38;;;;;;;;;;4931897;29;20498;-68
2022/07/21 05:10:56;;;;;;;14.10;2.60;;;;;;;;;;4931567;29;20039;-69
2022/07/21 05:13:22;;;;;;;5.97;1.92;;;;;;;;;;4931480;29;20123;-68
2022/07/21 05:15:47;;;;;;;5.25;2.00;;;;;;;;;;4931683;29;20118;-68
2022/07/21 05:18:13;;;;;;;8.05;2.40;;;;;;;;;;4931862;29;20019;-68
2022/07/21 05:20:39;;;;;;;7.63;2.10;;;;;;;;;;4931292;29;20039;-68
2022/07/21 05:23:05;;;;;;;12.43;2.92;;;;;;;;;;4931674;29;20032;-70
2022/07/21 05:25:32;;;;;;;7.18;2.55;;;;;;;;;;4929591;29;20317;-70
2022/07/21 05:27:58;;;;;;;5.65;2.00;;;;;;;;;;4931273;29;20047;-69
2022/07/21 05:30:24;;;;;;;5.13;2.08;;;;;;;;;;4931551;29;20040;-69
2022/07/21 05:32:49;;;;;;;5.25;2.00;;;;;;;;;;4934980;29;20383;-70
2022/07/21 05:35:16;;;;;;;6.40;2.10;;;;;;;;;;4935058;29;20035;-68
2022/07/21 05:37:42;;;;;;;12.02;2.47;;;;;;;;;;4928764;29;20038;-69
2022/07/21 05:40:09;;;;;;;6.20;2.17;;;;;;;;;;4928965;29;20134;-69
2022/07/21 05:42:36;;;;;;;9.55;2.03;;;;;;;;;;4928747;29;20032;-69
2022/07/21 05:45:03;;;;;;;9.00;1.88;;;;;;;;;;4932482;29;20031;-68
2022/07/21 05:47:29;;;;;;;7.05;2.05;;;;;;;;;;4925782;29;20033;-68
2022/07/21 05:49:55;;;;;;;10.20;2.25;;;;;;;;;;4917553;29;20499;-68
2022/07/21 05:52:21;;;;;;;11.25;2.70;;;;;;;;;;4917521;29;20065;-69
2022/07/21 05:54:47;;;;;;;7.07;1.70;;;;;;;;;;4917891;29;20076;-69
2022/07/21 05:57:12;;;;;;;6.53;2.00;;;;;;;;;;4917992;29;20031;-69
2022/07/21 05:59:39;;;;;;;8.65;2.08;;;;;;;;;;4936448;29;20129;-70
2022/07/21 06:02:04;;;;;;;7.75;2.20;;;;;;;;;;4919461;29;20123;-73
2022/07/21 06:04:30;;;;;;;11.30;2.92;;;;;;;;;;4934079;29;20043;-74
2022/07/21 06:06:56;;;;;;;11.82;2.40;;;;;;;;;;4936600;29;20028;-68
2022/07/21 06:09:22;;;;;;;9.77;2.38;;;;;;;;;;4935697;29;20490;-68
2022/07/21 06:11:48;;;;;;;19.63;2.80;;;;;;;;;;4936286;29;20031;-71
2022/07/21 06:14:14;;;;;;;8.90;1.77;;;;;;;;;;4936208;29;20471;-70
2022/07/21 06:16:40;;;;;;;5.05;2.13;;;;;;;;;;4936393;29;20079;-69
2022/07/21 06:19:06;;;;;;;7.47;1.80;;;;;;;;;;4919619;29;20041;-68
2022/07/21 06:21:32;;;;;;;8.07;2.47;;;;;;;;;;4936012;29;20087;-69
2022/07/21 06:23:59;;;;;;;6.20;1.92;;;;;;;;;;4935711;29;20046;-68
2022/07/21 06:26:25;;;;;;;5.28;1.90;;;;;;;;;;4936400;29;20035;-69
2022/07/21 06:28:51;;;;;;;6.63;2.10;;;;;;;;;;4936928;29;20036;-69
2022/07/21 06:31:17;;;;;;;7.00;2.03;;;;;;;;;;4934053;29;20030;-70
2022/07/21 06:33:43;;;;;;;6.25;2.10;;;;;;;;;;4922530;29;20075;-69
2022/07/21 06:36:10;;;;;;;10.75;2.17;;;;;;;;;;4936250;29;20095;-68
2022/07/21 06:38:36;;;;;;;10.30;2.15;;;;;;;;;;4937031;29;20479;-70
2022/07/21 06:41:02;;;;;;;10.07;2.38;;;;;;;;;;4936472;29;20031;-69
2022/07/21 06:43:37;;;;;;;5.50;1.80;;;;;;;;;;4936445;29;20040;-69
2022/07/21 06:57:03;;;;;;;9.73;2.33;;;;;;;;;;4898327;29;20036;-79
2022/07/21 06:59:31;;;;;;;6.75;2.28;;;;;;;;;;4898777;29;20033;-81
2022/07/21 07:01:58;;;;;;;10.23;2.38;;;;;;;;;;4895854;29;20124;-80
2022/07/21 07:04:24;;;;;;;9.82;2.50;;;;;;;;;;4892577;29;20475;-79
2022/07/21 07:06:52;;;;;;;7.95;2.38;;;;;;;;;;4912322;29;20131;-80
2022/07/21 07:09:18;;;;;;;8.45;3.05;;;;;;;;;;4897317;29;20065;-82
2022/07/21 07:11:46;;;;;;;7.45;2.35;;;;;;;;;;4886537;29;20037;-80
2022/07/21 07:14:13;;;;;;;9.10;2.72;;;;;;;;;;4883143;29;20037;-71
2022/07/21 07:16:40;;;;;;;8.27;2.53;;;;;;;;;;4894014;29;20025;-68
2022/07/21 07:19:06;;;;;;;8.40;2.00;;;;;;;;;;4890864;29;20059;-69
2022/07/21 07:21:32;;;;;;;7.63;2.53;;;;;;;;;;4895376;29;20119;-71
2022/07/21 07:23:57;;;;;;;8.77;2.33;;;;;;;;;;4878343;29;20480;-68
2022/07/21 07:26:23;;;;;;;6.38;2.40;;;;;;;;;;4877826;29;20037;-69
2022/07/21 07:28:49;;;;;;;5.00;1.90;;;;;;;;;;4878397;29;20191;-69
2022/07/21 07:31:15;;;;;;;14.23;3.28;;;;;;;;;;4878555;29;20409;-68
2022/07/21 07:33:40;;;;;;;8.73;2.10;;;;;;;;;;4892167;29;20037;-68
2022/07/21 07:36:10;;;;;;;14.98;4.20;;;;;;;;;;4897146;29;20047;-70
2022/07/21 07:38:36;;;;;;;4.32;1.90;;;;;;;;;;4896216;29;20103;-68
2022/07/21 07:41:02;;;;;;;7.00;2.33;;;;;;;;;;4897445;29;20479;-67
2022/07/21 07:43:28;;;;;;;10.77;2.58;;;;;;;;;;4897517;29;20037;-69
2022/07/21 07:45:54;;;;;;;5.43;2.00;;;;;;;;;;4897360;29;20396;-68
2022/07/21 07:48:19;;;;;;;7.25;2.22;;;;;;;;;;4897744;29;20115;-68
2022/07/21 07:50:45;;;;;;;4.18;1.80;;;;;;;;;;4897414;29;20429;-68
2022/07/21 07:53:11;;;;;;;6.22;1.90;;;;;;;;;;4895096;29;20040;-69
2022/07/21 07:55:37;;;;;;;5.47;2.00;;;;;;;;;;4911690;29;20061;-69
2022/07/21 07:58:03;;;;;;;3.30;1.52;;;;;;;;;;4935193;29;20036;-67
2022/07/21 08:00:29;;;;;;;6.78;1.60;;;;;;;;;;4935584;29;20043;-68
2022/07/21 08:02:54;;;;;;;5.93;2.03;;;;;;;;;;4935543;29;20102;-67
2022/07/21 08:05:20;;;;;;;11.25;2.20;;;;;;;;;;4934666;29;20051;-68
2022/07/21 08:07:46;;;;;;;7.82;2.20;;;;;;;;;;4935256;29;20039;-68
2022/07/21 08:10:13;;;;;;;7.78;2.10;;;;;;;;;;4935290;29;20034;-68
2022/07/21 08:12:39;;;;;;;7.97;2.50;;;;;;;;;;4935712;29;20406;-68
2022/07/21 08:15:05;;;;;;;8.27;2.05;;;;;;;;;;4935273;29;20379;-68
2022/07/21 08:17:32;;;;;;;10.52;2.45;;;;;;;;;;4935021;29;20090;-67
2022/07/21 08:19:58;;;;;;;3.05;1.50;;;;;;;;;;4935336;29;20051;-67
2022/07/21 08:22:23;;;;;;;9.15;2.15;;;;;;;;;;4935194;29;20040;-68
2022/07/21 08:24:49;;;;;;;5.13;1.90;;;;;;;;;;4935019;29;20122;-68
2022/07/21 08:27:15;;;;;;;4.65;1.90;;;;;;;;;;4935042;29;20036;-69
2022/07/21 08:29:41;;;;;;;6.00;2.10;;;;;;;;;;4934759;29;20023;-68
2022/07/21 08:32:07;;;;;;;5.53;1.77;;;;;;;;;;4935048;29;20047;-68
2022/07/21 08:34:32;;;;;;;6.40;2.05;;;;;;;;;;4935132;29;20114;-68
2022/07/21 08:36:58;;;;;;;4.22;1.95;;;;;;;;;;4935118;29;20493;-68
2022/07/21 08:39:24;;;;;;;4.95;1.60;;;;;;;;;;4935216;29;20098;-67
2022/07/21 08:41:51;;;;;;;5.57;2.17;;;;;;;;;;4934964;29;20083;-68
2022/07/21 08:44:17;;;;;;;8.05;1.83;;;;;;;;;;4934946;29;20512;-67
2022/07/21 08:46:50;;;;;;;10.57;2.13;;;;;;;;;;4935137;29;20466;-68
2022/07/21 08:49:19;;;;;;;3.80;1.60;;;;;;;;;;4934988;29;20426;-68
2022/07/21 08:51:45;;;;;;;4.53;1.80;;;;;;;;;;4935051;29;20035;-68
2022/07/21 08:54:11;;;;;;;7.82;2.00;;;;;;;;;;4934840;29;20427;-68
2022/07/21 08:56:37;;;;;;;6.22;1.45;;;;;;;;;;4934594;29;20079;-68
2022/07/21 08:59:05;;;;;;;9.20;1.98;;;;;;;;;;4934587;29;20479;-68
2022/07/21 09:01:32;;;;;;;4.70;1.58;;;;;;;;;;4934866;29;20063;-68
2022/07/21 09:04:25;;;;;;;3.42;1.70;;;;;;;;;;4934913;29;20035;-69
2022/07/21 09:06:59;;;;;;;10.23;1.90;;;;;;;;;;4938453;29;20474;-69
2022/07/21 09:09:27;;;;;;;4.63;1.63;;;;;;;;;;4938373;29;20055;-68
2022/07/21 09:11:54;;;;;;;8.60;1.63;;;;;;;;;;4938382;29;20063;-68
2022/07/21 09:14:23;;;;;;;7.70;1.70;;;;;;;;;;4938322;29;20067;-67
2022/07/21 09:16:51;;;;;;;8.85;1.77;;;;;;;;;;4938377;29;20031;-68
2022/07/21 09:19:22;;;;;;;4.30;1.50;;;;;;;;;;4938227;29;20031;-68
2022/07/21 09:21:49;;;;;;;2.85;1.50;;;;;;;;;;4938084;29;20032;-69
2022/07/21 09:24:25;;;;;;;8.43;1.60;;;;;;;;;;4938298;29;20078;-68
2022/07/21 09:27:03;;;;;;;4.30;1.42;;;;;;;;;;4938332;29;20036;-66
2022/07/21 09:29:47;;;;;;;4.45;1.48;;;;;;;;;;4938153;29;20034;-67
2022/07/21 09:32:15;;;;;;;8.18;2.17;;;;;;;;;;4938337;29;20043;-68
2022/07/21 09:34:42;;;;;;;4.03;1.60;;;;;;;;;;4938218;29;20058;-68
2022/07/21 09:37:09;;;;;;;6.20;2.03;;;;;;;;;;4938376;29;20086;-68
2022/07/21 09:40:06;;;;;;;2.65;1.80;;;;;;;;;;4937905;29;20127;-67
2022/07/21 09:42:37;;;;;;;5.15;1.98;;;;;;;;;;4937077;29;20472;-69
2022/07/21 09:45:06;;;;;;;4.22;1.67;;;;;;;;;;4937984;29;20550;-68
2022/07/21 09:47:33;;;;;;;6.55;1.83;;;;;;;;;;4937694;29;20035;-67
2022/07/21 09:50:00;;;;;;;6.80;2.13;;;;;;;;;;4937659;29;20467;-67
2022/07/21 09:52:29;;;;;;;3.92;1.58;;;;;;;;;;4937896;29;20028;-68
2022/07/21 09:54:59;;;;;;;5.78;1.75;;;;;;;;;;4937454;29;20027;-68
2022/07/21 09:57:26;;;;;;;5.70;1.90;;;;;;;;;;4937840;29;20038;-66
2022/07/21 09:59:53;;;;;;;2.63;1.80;;;;;;;;;;4935210;29;20378;-68
2022/07/21 10:02:25;;;;;;;3.22;1.90;;;;;;;;;;4936216;29;20119;-69
2022/07/21 10:05:18;;;;;;;5.00;1.70;;;;;;;;;;4937364;29;20115;-67
2022/07/21 10:07:47;;;;;;;5.03;1.50;;;;;;;;;;4930458;29;20371;-68
2022/07/21 10:10:15;;;;;;;6.35;1.85;;;;;;;;;;4936707;29;20458;-68
2022/07/21 10:12:40;;;;;;;6.35;1.80;;;;;;;;;;4937164;29;20039;-71
2022/07/21 10:15:07;;;;;;;8.07;2.22;;;;;;;;;;4937097;29;20083;-68
2022/07/21 10:17:33;;;;;;;5.72;1.50;;;;;;;;;;4936510;29;20063;-67
2022/07/21 10:20:08;;;;;;;2.53;1.50;;;;;;;;;;4936409;29;20062;-67
2022/07/21 10:22:58;;;;;;;3.22;1.55;;;;;;;;;;4936857;29;20546;-68
2022/07/21 10:25:24;;;;;;;8.43;1.35;;;;;;;;;;4936758;29;20509;-67
2022/07/21 10:28:23;;;;;;;4.10;1.50;;;;;;;;;;4936363;29;20549;-68
2022/07/21 10:30:52;;;;;;;2.00;1.60;;;;;;;;;;4936632;29;20043;-70
2022/07/21 10:33:20;;;;;;;3.22;1.50;;;;;;;;;;4936235;29;20091;-67
2022/07/21 10:35:51;;;;;;;5.57;1.88;;;;;;;;;;4936702;29;20167;-68
2022/07/21 10:38:31;;;;;;;4.28;1.58;;;;;;;;;;4936652;29;20039;-68
2022/07/21 10:41:02;;;;;;;4.22;1.70;;;;;;;;;;4936366;29;20042;-68
2022/07/21 10:43:28;;;;;;;6.32;1.65;;;;;;;;;;4936384;29;20036;-70
2022/07/21 10:45:54;;;;;;;6.22;1.65;;;;;;;;;;4935878;29;20043;-69
2022/07/21 10:48:42;;;;;;;8.02;2.47;;;;;;;;;;4935818;29;20423;-71
2022/07/21 10:51:11;;;;;;;6.22;1.48;;;;;;;;;;4935553;29;20042;-67
2022/07/21 10:53:37;;;;;;;5.20;1.90;;;;;;;;;;4935880;29;20036;-69
2022/07/21 10:56:04;;;;;;;3.00;1.50;;;;;;;;;;4936111;29;20040;-67
2022/07/21 10:58:32;;;;;;;3.30;1.52;;;;;;;;;;4935597;29;20036;-67
2022/07/21 11:01:03;;;;;;;4.88;1.40;;;;;;;;;;4935907;29;20040;-67
2022/07/21 11:03:38;;;;;;;8.68;2.40;;;;;;;;;;4936232;29;20557;-67
2022/07/21 11:06:15;;;;;;;2.80;1.70;;;;;;;;;;4936348;29;20032;-69
2022/07/21 11:08:47;;;;;;;4.00;1.50;;;;;;;;;;4935860;29;20035;-66
2022/07/21 11:11:27;;;;;;;3.58;1.83;;;;;;;;;;4935833;29;20062;-66
2022/07/21 11:14:14;;;;;;;4.15;1.70;;;;;;;;;;4936282;29;20028;-66
2022/07/21 11:16:59;;;;;;;3.38;1.67;;;;;;;;;;4935808;29;20070;-67
2022/07/21 11:19:38;;;;;;;3.97;1.80;;;;;;;;;;4935796;29;20032;-67
2022/07/21 11:22:13;;;;;;;4.82;2.55;;;;;;;;;;4935039;29;20182;-67
2022/07/21 11:24:41;;;;;;;3.75;1.63;;;;;;;;;;4934981;29;20047;-67
2022/07/21 11:27:09;;;;;;;3.22;1.70;;;;;;;;;;4933961;29;20071;-65
2022/07/21 11:29:36;;;;;;;4.15;1.63;;;;;;;;;;4917466;29;20039;-67
2022/07/21 11:32:03;;;;;;;2.65;1.77;;;;;;;;;;4936018;29;20109;-67
2022/07/21 11:34:50;;;;;;;4.15;1.67;;;;;;;;;;4936185;29;20027;-67
2022/07/21 11:37:26;;;;;;;3.05;1.70;;;;;;;;;;4935782;29;20084;-68
2022/07/21 11:39:52;;;;;;;10.60;2.00;;;;;;;;;;4918728;29;20043;-67
2022/07/21 11:42:17;;;;;;;3.20;1.50;;;;;;;;;;4935943;29;20034;-67
2022/07/21 11:44:44;;;;;;;3.53;1.40;;;;;;;;;;4935263;29;20087;-68
2022/07/21 11:47:12;;;;;;;7.07;2.25;;;;;;;;;;4933456;29;20032;-68
2022/07/21 11:49:39;;;;;;;2.85;1.40;;;;;;;;;;4935435;29;20066;-68
2022/07/21 11:52:08;;;;;;;2.78;1.70;;;;;;;;;;4935640;29;20479;-68
2022/07/21 11:54:35;;;;;;;2.08;1.60;;;;;;;;;;4935672;29;20031;-69
2022/07/21 11:57:04;;;;;;;5.18;1.90;;;;;;;;;;4934277;29;20047;-69
2022/07/21 11:59:31;;;;;;;3.75;1.60;;;;;;;;;;4935496;29;20036;-69
2022/07/21 12:01:59;;;;;;;2.35;1.70;;;;;;;;;;4918321;29;20423;-69
2022/07/21 12:04:29;;;;;;;4.05;2.03;;;;;;;;;;4918593;29;20067;-70
2022/07/21 12:06:55;;;;;;;7.45;1.90;;;;;;;;;;4935344;29;20538;-70
2022/07/21 12:09:22;;;;;;;10.48;2.40;;;;;;;;;;4934580;29;20047;-68
2022/07/21 12:11:48;;;;;;;5.15;1.73;;;;;;;;;;4917969;29;20479;-69
2022/07/21 12:14:14;;;;;;;5.45;1.90;;;;;;;;;;4935312;29;20036;-68
2022/07/21 12:16:54;;;;;;;5.30;1.58;;;;;;;;;;4935460;29;20408;-69
2022/07/21 12:19:20;;;;;;;3.60;1.40;;;;;;;;;;4935211;29;20135;-69
2022/07/21 12:21:49;;;;;;;5.43;1.65;;;;;;;;;;4934805;29;20074;-70
2022/07/21 12:24:16;;;;;;;3.30;1.70;;;;;;;;;;4915964;29;20044;-70
2022/07/21 12:26:42;;;;;;;7.15;1.50;;;;;;;;;;4916406;29;20043;-72
2022/07/21 12:29:09;;;;;;;5.70;1.60;;;;;;;;;;4916193;29;20028;-73
2022/07/21 12:31:36;;;;;;;4.22;1.50;;;;;;;;;;4916353;29;20084;-72
2022/07/21 12:34:14;;;;;;;5.68;1.60;;;;;;;;;;4916315;29;20040;-71
2022/07/21 12:36:42;;;;;;;4.85;2.10;;;;;;;;;;4933237;29;20372;-68
2022/07/21 12:39:55;;;;;;;2.95;2.05;;;;;;;;;;4935498;29;20545;-67
2022/07/21 12:42:01;;;;;;;2.78;1.52;;;;;;;;;;4939093;29;20039;-67
2022/07/21 12:44:29;;;;;;;4.05;1.70;;;;;;;;;;4939126;29;20058;-67
2022/07/21 12:46:55;;;;;;;5.88;2.25;;;;;;;;;;4939272;29;20387;-66
2022/07/21 12:49:21;;;;;;;6.03;2.13;;;;;;;;;;4938512;29;20043;-66
2022/07/21 12:51:56;;;;;;;4.90;1.63;;;;;;;;;;4938844;29;20039;-68
2022/07/21 12:54:23;;;;;;;4.05;1.80;;;;;;;;;;4939309;29;20054;-67
2022/07/21 12:56:49;;;;;;;2.72;1.40;;;;;;;;;;4940136;29;20152;-68
2022/07/21 12:59:14;;;;;;;5.90;2.00;;;;;;;;;;4942779;29;20083;-67
2022/07/21 13:01:40;;;;;;;3.45;1.40;;;;;;;;;;4938618;29;20019;-67
2022/07/21 13:04:06;;;;;;;3.20;1.50;;;;;;;;;;4938936;29;20051;-66
2022/07/21 13:06:32;;;;;;;3.30;1.80;;;;;;;;;;4938838;29;20044;-67
2022/07/21 13:08:58;;;;;;;8.07;1.20;;;;;;;;;;4938733;29;20042;-69
2022/07/21 13:11:24;;;;;;;3.13;1.48;;;;;;;;;;4938534;29;20035;-71
2022/07/21 13:13:51;;;;;;;5.22;2.28;;;;;;;;;;4938320;29;20035;-69
2022/07/21 13:16:19;;;;;;;2.95;1.65;;;;;;;;;;4938428;29;20055;-70
2022/07/21 13:18:45;;;;;;;4.45;1.70;;;;;;;;;;4938585;29;20038;-67
2022/07/21 13:21:10;;;;;;;2.88;1.30;;;;;;;;;;4938273;29;20034;-69
2022/07/21 13:23:37;;;;;;;3.88;1.70;;;;;;;;;;4938633;29;20351;-69
2022/07/21 13:26:03;;;;;;;2.33;1.70;;;;;;;;;;4937918;29;20120;-69
2022/07/21 13:28:28;;;;;;;2.80;1.50;;;;;;;;;;4938702;29;20110;-69
2022/07/21 13:30:54;;;;;;;3.58;1.30;;;;;;;;;;4938066;29;20473;-71
2022/07/21 13:33:20;;;;;;;6.28;1.80;;;;;;;;;;4938196;29;20083;-70
2022/07/21 13:35:46;;;;;;;4.88;1.67;;;;;;;;;;4938227;29;20455;-69
2022/07/21 13:38:12;;;;;;;2.75;1.77;;;;;;;;;;4937394;29;20368;-70
2022/07/21 13:40:38;;;;;;;4.38;1.80;;;;;;;;;;4937108;29;20467;-73
2022/07/21 13:43:05;;;;;;;2.10;1.42;;;;;;;;;;4936781;29;20039;-69
2022/07/21 13:45:31;;;;;;;2.45;1.40;;;;;;;;;;4936979;29;20039;-67
2022/07/21 13:47:56;;;;;;;6.07;1.65;;;;;;;;;;4938012;29;20031;-69
2022/07/21 13:50:22;;;;;;;3.35;1.50;;;;;;;;;;4937250;29;20039;-68
2022/07/21 13:52:48;;;;;;;4.35;1.83;;;;;;;;;;4937216;29;20071;-68
2022/07/21 13:55:14;;;;;;;4.53;1.90;;;;;;;;;;4937756;29;20607;-68
2022/07/21 13:57:40;;;;;;;3.28;1.50;;;;;;;;;;4937764;29;20035;-68
2022/07/21 14:00:08;;;;;;;4.20;1.58;;;;;;;;;;4937890;29;20028;-67
2022/07/21 14:02:34;;;;;;;3.70;1.55;;;;;;;;;;4938043;29;20095;-66
2022/07/21 14:05:00;;;;;;;11.52;2.22;;;;;;;;;;4938193;29;20386;-67
2022/07/21 14:07:26;;;;;;;2.13;1.63;;;;;;;;;;4937744;29;20034;-67
2022/07/21 14:09:52;;;;;;;1.90;1.33;;;;;;;;;;4937558;29;20059;-67
2022/07/21 14:12:18;;;;;;;2.67;1.50;;;;;;;;;;4937953;29;20036;-66
2022/07/21 14:14:47;;;;;;;4.88;1.70;;;;;;;;;;4937870;29;20048;-68
2022/07/21 14:17:15;;;;;;;3.15;1.30;;;;;;;;;;4937677;29;20411;-67
2022/07/21 14:19:43;;;;;;;2.00;1.42;;;;;;;;;;4937596;29;20557;-67
2022/07/21 14:22:10;;;;;;;3.42;1.40;;;;;;;;;;4937988;29;20043;-67
2022/07/21 14:27:20;;;;;;;3.42;1.65;;;;;;;;;;4937556;29;20034;-66
2022/07/21 14:29:46;;;;;;;3.25;1.40;;;;;;;;;;4937588;29;20027;-66
2022/07/21 14:32:13;;;;;;;3.60;1.35;;;;;;;;;;4937681;29;20502;-68
2022/07/21 14:34:39;;;;;;;4.22;1.77;;;;;;;;;;4937806;29;20043;-68
2022/07/21 14:37:04;;;;;;;4.90;1.73;;;;;;;;;;4937394;29;20036;-67
2022/07/21 14:39:30;;;;;;;4.80;1.80;;;;;;;;;;4937444;29;20032;-67
2022/07/21 14:41:56;;;;;;;3.47;1.50;;;;;;;;;;4937392;29;20043;-68
2022/07/21 14:44:22;;;;;;;2.10;1.30;;;;;;;;;;4937057;29;20051;-67
2022/07/21 14:46:48;;;;;;;2.85;1.63;;;;;;;;;;4936898;29;20035;-67
2022/07/21 14:49:13;;;;;;;3.97;1.60;;;;;;;;;;4936848;29;20043;-68
2022/07/21 14:51:39;;;;;;;2.53;1.60;;;;;;;;;;4938233;29;20047;-67
2022/07/21 14:54:05;;;;;;;2.42;1.67;;;;;;;;;;4939093;29;20031;-67
2022/07/21 14:56:31;;;;;;;2.75;1.52;;;;;;;;;;4937042;29;20043;-67
2022/07/21 14:58:57;;;;;;;2.22;1.58;;;;;;;;;;4936962;29;20035;-66
2022/07/21 15:01:24;;;;;;;2.45;1.40;;;;;;;;;;4937026;29;20035;-72